createdAt,value
2019-02-02T00:00:57.686Z,88.50
2019-02-02T00:05:02.671Z,88.50
2019-02-02T00:09:09.472Z,88.49
2019-02-02T00:13:14.397Z,88.54
2019-02-02T00:17:19.294Z,88.71
2019-02-02T00:21:24.175Z,88.83
2019-02-02T00:25:29.096Z,88.79
2019-02-02T00:29:33.973Z,88.80
2019-02-02T00:33:39.182Z,88.77
2019-02-02T00:37:44.080Z,88.76
2019-02-02T00:41:48.968Z,88.79
2019-02-02T00:45:53.863Z,88.73
2019-02-02T00:49:59.196Z,88.69
2019-02-02T00:54:04.137Z,88.63
2019-02-02T00:58:09.057Z,88.54
2019-02-02T01:02:13.955Z,88.57
2019-02-02T01:06:19.521Z,88.54
2019-02-02T01:10:28.462Z,88.52
2019-02-02T01:14:33.368Z,88.48
2019-02-02T01:18:38.332Z,88.47
2019-02-02T01:22:43.227Z,88.45
2019-02-02T01:26:48.376Z,88.37
2019-02-02T01:30:53.580Z,88.41
2019-02-02T01:34:58.519Z,88.37
2019-02-02T01:39:04.378Z,88.37
2019-02-02T01:43:09.289Z,88.29
2019-02-02T01:47:14.275Z,88.36
2019-02-02T01:51:19.502Z,88.10
2019-02-02T01:55:24.521Z,88.18
2019-02-02T01:59:29.396Z,88.07
2019-02-02T02:03:34.644Z,87.97
2019-02-02T02:07:39.533Z,87.97
2019-02-02T02:11:44.485Z,87.89
2019-02-02T02:15:49.414Z,87.86
2019-02-02T02:19:54.278Z,87.75
2019-02-02T02:23:59.255Z,87.62
2019-02-02T02:28:04.137Z,87.43
2019-02-02T02:32:09.099Z,87.42
2019-02-02T02:36:14.270Z,87.39
2019-02-02T02:40:21.822Z,87.31
2019-02-02T02:44:26.785Z,87.65
2019-02-02T02:48:31.667Z,87.75
2019-02-02T02:52:36.556Z,87.83
2019-02-02T02:56:41.515Z,87.55
2019-02-02T03:00:46.417Z,87.47
2019-02-02T03:04:51.301Z,87.37
2019-02-02T03:08:56.497Z,87.39
2019-02-02T03:13:01.615Z,87.30
2019-02-02T03:17:06.614Z,87.29
2019-02-02T03:21:11.802Z,87.50
2019-02-02T03:25:22.391Z,87.37
2019-02-02T03:29:27.290Z,87.45
2019-02-02T03:33:32.260Z,87.45
2019-02-02T03:37:37.130Z,87.47
2019-02-02T03:41:42.134Z,87.53
2019-02-02T03:45:47.020Z,87.52
2019-02-02T03:49:51.906Z,87.49
2019-02-02T03:54:08.273Z,87.53
2019-02-02T03:58:03.479Z,87.43
2019-02-02T04:02:08.698Z,87.15
2019-02-02T04:06:13.678Z,86.95
2019-02-02T04:10:18.656Z,87.14
2019-02-02T04:14:23.663Z,87.10
2019-02-02T04:18:28.609Z,87.09
2019-02-02T04:22:35.687Z,86.99
2019-02-02T04:26:40.112Z,86.90
2019-02-02T04:30:45.011Z,87.44
2019-02-02T04:34:49.922Z,87.30
2019-02-02T04:38:54.817Z,87.39
2019-02-02T04:43:01.782Z,87.33
2019-02-02T04:47:06.299Z,87.60
2019-02-02T04:51:11.203Z,87.41
2019-02-02T04:55:17.582Z,87.56
2019-02-02T04:59:29.085Z,87.58
2019-02-02T05:03:29.136Z,87.59
2019-02-02T05:07:34.028Z,87.72
2019-02-02T05:11:38.930Z,87.72
2019-02-02T05:15:43.825Z,87.81
2019-02-02T05:19:49.049Z,87.67
2019-02-02T05:23:54.416Z,87.86
2019-02-02T05:27:59.300Z,87.97
2019-02-02T05:32:04.207Z,87.95
2019-02-02T05:36:09.096Z,87.94
2019-02-02T05:40:15.855Z,88.02
2019-02-02T05:44:21.047Z,88.10
2019-02-02T05:48:25.949Z,87.98
2019-02-02T05:52:30.846Z,88.13
2019-02-02T05:56:35.776Z,88.11
2019-02-02T06:00:44.333Z,88.36
2019-02-02T06:04:49.439Z,88.56
2019-02-02T06:08:54.393Z,88.61
2019-02-02T06:12:59.367Z,88.64
2019-02-02T06:17:04.825Z,88.65
2019-02-02T06:21:09.708Z,88.75
2019-02-02T06:25:14.772Z,88.76
2019-02-02T06:29:19.775Z,88.86
2019-02-02T06:33:24.697Z,88.93
2019-02-02T06:37:29.618Z,88.96
2019-02-02T06:41:34.673Z,89.02
2019-02-02T06:45:39.575Z,89.00
2019-02-02T06:49:44.458Z,88.92
2019-02-02T06:53:50.230Z,88.95
2019-02-02T06:57:55.673Z,88.97
2019-02-02T07:02:00.608Z,88.91
2019-02-02T07:06:05.655Z,88.96
2019-02-02T07:10:14.487Z,88.99
2019-02-02T07:14:19.384Z,88.96
2019-02-02T07:18:24.277Z,88.99
2019-02-02T07:22:29.372Z,88.95
2019-02-02T07:26:34.783Z,88.80
2019-02-02T07:30:39.679Z,88.82
2019-02-02T07:34:45.035Z,88.79
2019-02-02T07:38:50.050Z,88.75
2019-02-02T07:42:54.911Z,88.73
2019-02-02T07:46:59.800Z,88.84
2019-02-02T07:51:04.737Z,88.80
2019-02-02T07:55:11.472Z,88.79
2019-02-02T07:59:16.484Z,88.77
2019-02-02T08:03:21.463Z,88.74
2019-02-02T08:07:26.385Z,88.76
2019-02-02T08:11:31.295Z,88.76
2019-02-02T08:15:36.186Z,88.78
2019-02-02T08:19:41.083Z,88.87
2019-02-02T08:23:46.015Z,88.94
2019-02-02T08:27:50.936Z,89.01
2019-02-02T08:31:55.838Z,88.98
2019-02-02T08:36:04.054Z,88.98
2019-02-02T08:40:09.832Z,88.95
2019-02-02T08:44:14.843Z,88.95
2019-02-02T08:48:19.853Z,88.97
2019-02-02T08:52:24.813Z,89.00
2019-02-02T08:56:30.185Z,88.90
2019-02-02T09:00:35.101Z,88.86
2019-02-02T09:04:39.997Z,88.78
2019-02-02T09:08:45.210Z,88.58
2019-02-02T09:12:50.121Z,88.54
2019-02-02T09:16:55.007Z,88.41
2019-02-02T09:21:00.092Z,88.45
2019-02-02T09:25:05.956Z,88.60
2019-02-02T09:29:10.870Z,88.57
2019-02-02T09:33:15.876Z,88.61
2019-02-02T09:37:21.065Z,88.65
2019-02-02T09:41:26.133Z,88.65
2019-02-02T09:45:31.038Z,88.61
2019-02-02T09:49:36.036Z,88.61
2019-02-02T09:53:40.949Z,88.62
2019-02-02T09:57:46.175Z,88.70
2019-02-02T10:01:51.128Z,88.65
2019-02-02T10:05:56.218Z,88.54
2019-02-02T10:10:01.415Z,88.54
2019-02-02T10:14:06.411Z,88.52
2019-02-02T10:18:11.614Z,88.46
2019-02-02T10:22:16.526Z,88.47
2019-02-02T10:26:21.735Z,88.45
2019-02-02T10:30:32.530Z,88.42
2019-02-02T10:34:37.429Z,88.46
2019-02-02T10:38:42.427Z,88.43
2019-02-02T10:42:47.441Z,88.37
2019-02-02T10:46:52.403Z,88.35
2019-02-02T10:50:57.634Z,88.33
2019-02-02T10:55:02.618Z,88.17
2019-02-02T10:59:08.800Z,88.16
2019-02-02T11:03:14.542Z,88.13
2019-02-02T11:07:19.951Z,88.29
2019-02-02T11:11:24.916Z,88.23
2019-02-02T11:15:30.269Z,88.01
2019-02-02T11:19:35.203Z,87.95
2019-02-02T11:23:40.197Z,87.64
2019-02-02T11:27:45.306Z,87.57
2019-02-02T11:32:02.217Z,87.50
2019-02-02T11:35:57.582Z,87.30
2019-02-02T11:40:02.999Z,87.29
2019-02-02T11:44:08.288Z,87.39
2019-02-02T11:48:15.093Z,87.17
2019-02-02T11:52:23.230Z,87.37
2019-02-02T11:56:27.064Z,87.14
2019-02-02T12:00:42.780Z,87.27
2019-02-02T12:04:47.711Z,87.07
2019-02-02T12:08:53.032Z,87.06
2019-02-02T12:12:58.080Z,86.84
2019-02-02T12:17:03.385Z,87.28
2019-02-02T12:21:14.194Z,87.18
2019-02-02T12:25:19.162Z,87.14
2019-02-02T12:29:24.033Z,87.01
2019-02-02T12:33:29.320Z,87.16
2019-02-02T12:37:34.540Z,87.05
2019-02-02T12:41:39.535Z,87.12
2019-02-02T12:45:51.318Z,87.30
2019-02-02T12:49:56.460Z,87.16
2019-02-02T12:54:01.428Z,87.01
2019-02-02T12:58:07.095Z,87.19
2019-02-02T13:02:12.039Z,87.19
2019-02-02T13:06:17.016Z,87.07
2019-02-02T13:10:25.042Z,86.96
2019-02-02T13:14:30.057Z,87.01
2019-02-02T13:18:34.972Z,86.98
2019-02-02T13:22:39.894Z,86.92
2019-02-02T13:26:44.804Z,86.89
2019-02-02T13:30:49.681Z,86.97
2019-02-02T13:34:56.696Z,87.18
2019-02-02T13:39:02.093Z,87.19
2019-02-02T13:43:06.957Z,87.34
2019-02-02T13:47:11.972Z,87.35
2019-02-02T13:51:16.960Z,87.16
2019-02-02T13:55:21.937Z,87.29
2019-02-02T13:59:26.800Z,87.29
2019-02-02T14:03:31.983Z,87.24
2019-02-02T14:07:36.999Z,87.27
2019-02-02T14:11:42.077Z,87.39
2019-02-02T14:15:47.007Z,87.42
2019-02-02T14:19:52.049Z,87.39
2019-02-02T14:23:57.279Z,87.49
2019-02-02T14:28:02.280Z,87.41
2019-02-02T14:32:07.178Z,87.38
2019-02-02T14:36:12.206Z,87.34
2019-02-02T14:40:18.477Z,87.38
2019-02-02T14:44:23.918Z,87.52
2019-02-02T14:48:28.919Z,87.49
2019-02-02T14:52:34.234Z,87.57
2019-02-02T14:56:39.217Z,87.57
2019-02-02T15:00:44.125Z,87.50
2019-02-02T15:04:49.109Z,87.50
2019-02-02T15:08:54.107Z,87.66
2019-02-02T15:12:59.349Z,87.72
2019-02-02T15:17:04.315Z,87.64
2019-02-02T15:21:09.227Z,87.69
2019-02-02T15:25:14.568Z,87.77
2019-02-02T15:29:19.971Z,87.79
2019-02-02T15:33:24.988Z,87.71
2019-02-02T15:37:30.310Z,87.67
2019-02-02T15:41:35.195Z,87.75
2019-02-02T15:45:40.162Z,87.68
2019-02-02T15:49:45.107Z,87.78
2019-02-02T15:53:50.321Z,87.84
2019-02-02T15:57:55.969Z,87.88
2019-02-02T16:02:00.935Z,87.91
2019-02-02T16:06:05.913Z,87.88
2019-02-02T16:10:15.554Z,87.84
2019-02-02T16:14:20.625Z,87.78
2019-02-02T16:18:25.522Z,87.79
2019-02-02T16:22:30.439Z,87.81
2019-02-02T16:26:35.342Z,87.85
2019-02-02T16:30:40.351Z,87.93
2019-02-02T16:34:45.270Z,88.09
2019-02-02T16:38:50.812Z,88.17
2019-02-02T16:42:55.679Z,88.30
2019-02-02T16:47:00.577Z,88.43
2019-02-02T16:51:05.567Z,88.50
2019-02-02T16:55:11.132Z,88.58
2019-02-02T16:59:16.049Z,88.60
2019-02-02T17:03:20.994Z,88.57
2019-02-02T17:07:26.210Z,88.64
2019-02-02T17:11:31.212Z,88.61
2019-02-02T17:15:36.459Z,88.33
2019-02-02T17:19:41.367Z,88.27
2019-02-02T17:23:46.596Z,88.33
2019-02-02T17:27:51.468Z,88.14
2019-02-02T17:31:56.482Z,88.14
2019-02-02T17:36:01.387Z,88.11
2019-02-02T17:40:12.529Z,88.01
2019-02-02T17:44:17.751Z,88.01
2019-02-02T17:48:22.938Z,88.13
2019-02-02T17:52:27.851Z,88.25
2019-02-02T17:56:32.764Z,88.09
2019-02-02T18:00:43.583Z,88.10
2019-02-02T18:04:48.468Z,88.16
2019-02-02T18:08:53.766Z,87.97
2019-02-02T18:12:58.661Z,88.20
2019-02-02T18:17:03.654Z,88.30
2019-02-02T18:21:08.620Z,88.48
2019-02-02T18:25:14.324Z,88.66
2019-02-02T18:29:19.340Z,88.78
2019-02-02T18:33:24.263Z,88.81
2019-02-02T18:37:29.403Z,88.85
2019-02-02T18:41:34.310Z,88.94
2019-02-02T18:45:39.197Z,89.04
2019-02-02T18:49:44.145Z,89.07
2019-02-02T18:53:49.071Z,89.09
2019-02-02T18:57:53.989Z,89.03
2019-02-02T19:01:58.886Z,89.02
2019-02-02T19:06:03.775Z,88.94
2019-02-02T19:10:16.197Z,88.87
2019-02-02T19:14:21.103Z,88.85
2019-02-02T19:18:26.011Z,88.83
2019-02-02T19:22:30.904Z,88.84
2019-02-02T19:26:35.844Z,88.85
2019-02-02T19:30:40.826Z,88.86
2019-02-02T19:34:45.736Z,88.85
2019-02-02T19:38:50.619Z,88.92
2019-02-02T19:42:55.537Z,88.86
2019-02-02T19:47:00.743Z,88.89
2019-02-02T19:51:05.667Z,88.87
2019-02-02T19:55:14.704Z,88.85
2019-02-02T19:59:17.440Z,88.83
2019-02-02T20:03:22.354Z,88.81
2019-02-02T20:07:27.621Z,88.68
2019-02-02T20:11:32.515Z,88.60
2019-02-02T20:15:37.398Z,88.59
2019-02-02T20:19:42.370Z,88.58
2019-02-02T20:23:47.272Z,88.57
2019-02-02T20:27:52.187Z,88.54
2019-02-02T20:31:57.181Z,88.57
2019-02-02T20:36:02.148Z,88.67
2019-02-02T20:40:09.511Z,88.41
2019-02-02T20:44:14.506Z,88.53
2019-02-02T20:48:19.761Z,88.59
2019-02-02T20:52:24.696Z,88.56
2019-02-02T20:56:29.689Z,88.54
2019-02-02T21:00:35.234Z,88.48
2019-02-02T21:04:40.117Z,88.49
2019-02-02T21:08:45.695Z,88.34
2019-02-02T21:12:50.582Z,88.26
2019-02-02T21:16:55.558Z,88.29
2019-02-02T21:21:00.841Z,88.37
2019-02-02T21:25:06.356Z,88.47
2019-02-02T21:29:11.581Z,88.57
2019-02-02T21:33:16.924Z,88.66
2019-02-02T21:37:21.923Z,88.78
2019-02-02T21:41:26.857Z,88.88
2019-02-02T21:45:32.377Z,89.01
2019-02-02T21:49:37.811Z,89.06
2019-02-02T21:53:43.523Z,89.12
2019-02-02T21:57:48.951Z,89.14
2019-02-02T22:01:54.252Z,89.21
2019-02-02T22:05:59.648Z,89.32
2019-02-02T22:10:06.317Z,89.42
2019-02-02T22:14:11.744Z,89.50
2019-02-02T22:18:21.586Z,89.63
2019-02-02T22:22:24.864Z,89.71
2019-02-02T22:26:30.277Z,89.79
2019-02-02T22:30:37.871Z,89.80
2019-02-02T22:34:43.240Z,89.75
2019-02-02T22:38:48.743Z,89.72
2019-02-02T22:42:54.159Z,89.69
2019-02-02T22:46:59.660Z,89.61
2019-02-02T22:51:05.096Z,89.58
2019-02-02T22:55:11.866Z,89.50
2019-02-02T22:59:17.325Z,89.45
2019-02-02T23:03:28.906Z,89.41
2019-02-02T23:08:28.039Z,89.37
2019-02-02T23:13:17.424Z,89.30
2019-02-02T23:17:22.831Z,89.18
2019-02-02T23:21:29.947Z,89.03
2019-02-02T23:25:35.428Z,88.91
2019-02-02T23:29:40.855Z,88.87
2019-02-02T23:33:46.385Z,88.80
2019-02-02T23:37:51.803Z,88.71
2019-02-02T23:41:57.224Z,88.68
2019-02-02T23:46:02.646Z,88.69
2019-02-02T23:50:08.839Z,88.70
2019-02-02T23:54:14.267Z,88.74
2019-02-02T23:58:19.683Z,88.74
